createdAt,value
2023-03-29T00:00:30.610Z,7.15
2023-03-29T00:02:58.369Z,10.25
2023-03-29T00:05:25.742Z,5.05
2023-03-29T00:08:02.442Z,7.35
2023-03-29T00:10:30.199Z,6.30
2023-03-29T00:12:57.490Z,7.88
2023-03-29T00:15:24.703Z,2.78
2023-03-29T00:17:52.007Z,6.28
2023-03-29T00:20:19.303Z,3.05
2023-03-29T00:22:47.065Z,7.65
2023-03-29T00:25:14.907Z,3.45
2023-03-29T00:27:42.033Z,2.75
2023-03-29T00:30:10.389Z,3.50
2023-03-29T00:32:37.908Z,2.20
2023-03-29T00:35:06.430Z,4.22
2023-03-29T00:37:34.084Z,3.08
2023-03-29T00:40:01.599Z,5.72
2023-03-29T00:42:28.735Z,3.40
2023-03-29T00:45:02.853Z,5.40
2023-03-29T00:47:40.205Z,3.25
2023-03-29T00:50:18.796Z,2.78
2023-03-29T00:52:51.995Z,7.68
2023-03-29T00:55:23.156Z,4.35
2023-03-29T00:57:52.437Z,7.13
2023-03-29T01:00:22.456Z,5.28
2023-03-29T01:02:56.063Z,4.60
2023-03-29T01:05:35.532Z,6.80
2023-03-29T01:08:26.016Z,3.97
2023-03-29T01:11:03.199Z,7.13
2023-03-29T01:13:39.787Z,3.58
2023-03-29T01:16:09.655Z,4.63
2023-03-29T01:18:36.812Z,3.13
2023-03-29T01:21:25.524Z,4.95
2023-03-29T01:24:25.261Z,8.27
2023-03-29T01:27:15.084Z,2.97
2023-03-29T01:29:50.670Z,4.13
2023-03-29T01:32:46.743Z,8.48
2023-03-29T01:35:19.089Z,3.90
2023-03-29T01:37:59.087Z,4.72
2023-03-29T01:40:29.049Z,4.68
2023-03-29T01:43:06.508Z,3.15
2023-03-29T01:46:05.408Z,4.57
2023-03-29T01:48:56.981Z,3.85
2023-03-29T01:51:27.012Z,6.28
2023-03-29T01:54:20.881Z,4.35
2023-03-29T01:56:50.654Z,5.60
2023-03-29T01:59:22.978Z,3.88
2023-03-29T02:01:54.720Z,5.00
2023-03-29T02:04:30.303Z,4.50
2023-03-29T02:07:00.952Z,4.97
2023-03-29T02:09:30.528Z,4.15
2023-03-29T02:12:01.181Z,5.45
2023-03-29T02:14:29.661Z,5.45
2023-03-29T02:16:57.038Z,3.28
2023-03-29T02:19:26.170Z,3.15
2023-03-29T02:22:07.541Z,4.03
2023-03-29T02:24:37.351Z,6.22
2023-03-29T02:27:04.952Z,4.53
2023-03-29T02:29:32.218Z,1.65
2023-03-29T02:32:09.068Z,3.35
2023-03-29T02:34:47.976Z,3.17
2023-03-29T02:37:19.190Z,3.65
2023-03-29T02:39:50.004Z,2.60
2023-03-29T02:42:20.888Z,5.07
2023-03-29T02:44:51.694Z,3.45
2023-03-29T02:47:27.217Z,3.00
2023-03-29T02:49:54.445Z,4.75
2023-03-29T02:52:29.784Z,2.75
2023-03-29T02:55:00.634Z,4.65
2023-03-29T02:57:28.942Z,3.15
2023-03-29T02:59:57.769Z,4.15
2023-03-29T03:02:26.113Z,4.18
2023-03-29T03:04:53.784Z,6.15
2023-03-29T03:07:21.437Z,3.75
2023-03-29T03:09:49.201Z,2.70
2023-03-29T03:12:16.310Z,6.15
2023-03-29T03:14:43.475Z,5.43
2023-03-29T03:17:10.629Z,3.70
2023-03-29T03:19:38.614Z,3.83
2023-03-29T03:22:06.424Z,3.85
2023-03-29T03:24:33.845Z,7.70
2023-03-29T03:27:00.979Z,9.77
2023-03-29T03:29:28.687Z,3.22
2023-03-29T03:31:55.926Z,5.35
2023-03-29T03:34:23.363Z,3.58
2023-03-29T03:36:52.008Z,4.55
2023-03-29T03:39:19.211Z,2.47
2023-03-29T03:41:46.351Z,3.40
2023-03-29T03:44:13.537Z,4.00
2023-03-29T03:46:40.655Z,4.60
2023-03-29T03:49:07.806Z,5.60
2023-03-29T03:51:34.957Z,3.15
2023-03-29T03:54:02.211Z,2.60
2023-03-29T03:56:30.248Z,6.30
2023-03-29T03:58:57.644Z,3.40
2023-03-29T04:01:24.810Z,5.05
2023-03-29T04:03:51.976Z,3.10
2023-03-29T04:06:19.158Z,2.20
2023-03-29T04:08:48.243Z,2.28
2023-03-29T04:11:16.181Z,4.05
2023-03-29T04:13:43.367Z,3.63
2023-03-29T04:16:10.626Z,4.10
2023-03-29T04:18:37.757Z,3.08
2023-03-29T04:21:05.269Z,3.33
2023-03-29T04:23:32.379Z,2.63
2023-03-29T04:25:59.705Z,2.10
2023-03-29T04:28:26.828Z,3.88
2023-03-29T04:30:53.945Z,4.00
2023-03-29T04:33:21.486Z,3.08
2023-03-29T04:35:48.638Z,6.18
2023-03-29T04:38:16.966Z,2.50
2023-03-29T04:40:44.387Z,1.63
2023-03-29T04:43:11.483Z,6.65
2023-03-29T04:45:38.517Z,3.30
2023-03-29T04:48:05.991Z,4.30
2023-03-29T04:50:33.385Z,6.18
2023-03-29T04:53:00.647Z,7.57
2023-03-29T04:55:27.774Z,6.47
2023-03-29T04:57:55.939Z,4.82
2023-03-29T05:00:27.453Z,4.72
2023-03-29T05:02:55.252Z,6.60
2023-03-29T05:05:22.963Z,4.50
2023-03-29T05:07:50.978Z,8.13
2023-03-29T05:10:18.534Z,3.53
2023-03-29T05:12:45.681Z,4.88
2023-03-29T05:15:12.751Z,4.68
2023-03-29T05:17:39.788Z,3.90
2023-03-29T05:20:10.311Z,5.13
2023-03-29T05:22:38.539Z,7.85
2023-03-29T05:25:06.939Z,3.03
2023-03-29T05:27:34.825Z,2.22
2023-03-29T05:30:02.236Z,3.03
2023-03-29T05:32:30.252Z,2.55
2023-03-29T05:34:57.425Z,2.25
2023-03-29T05:37:24.456Z,4.10
2023-03-29T05:39:51.491Z,3.70
2023-03-29T05:42:22.654Z,2.40
2023-03-29T05:44:50.700Z,2.42
2023-03-29T05:47:19.158Z,1.60
2023-03-29T05:49:46.917Z,6.40
2023-03-29T05:52:14.756Z,2.80
2023-03-29T05:54:42.498Z,7.82
2023-03-29T05:57:10.062Z,2.47
2023-03-29T05:59:37.311Z,2.03
2023-03-29T06:02:05.081Z,2.25
2023-03-29T06:04:33.874Z,2.53
2023-03-29T06:07:02.347Z,2.28
2023-03-29T06:09:29.390Z,2.97
2023-03-29T06:11:58.039Z,3.17
2023-03-29T06:14:25.283Z,2.90
2023-03-29T06:16:52.389Z,2.20
2023-03-29T06:19:19.692Z,2.15
2023-03-29T06:21:46.700Z,1.77
2023-03-29T06:24:13.835Z,1.73
2023-03-29T06:26:41.541Z,3.70
2023-03-29T06:29:08.711Z,3.03
2023-03-29T06:31:36.871Z,4.80
2023-03-29T06:34:04.905Z,2.83
2023-03-29T06:36:34.636Z,3.50
2023-03-29T06:39:02.406Z,5.38
2023-03-29T06:41:29.394Z,7.25
2023-03-29T06:43:56.500Z,7.85
2023-03-29T06:46:24.229Z,7.00
2023-03-29T06:48:51.814Z,4.90
2023-03-29T06:51:20.606Z,4.38
2023-03-29T06:53:49.804Z,2.58
2023-03-29T06:56:17.818Z,5.80
2023-03-29T06:58:45.267Z,6.53
2023-03-29T07:01:13.033Z,9.00
2023-03-29T07:03:41.479Z,5.50
2023-03-29T07:06:12.594Z,6.60
2023-03-29T07:08:47.695Z,3.28
2023-03-29T07:11:16.586Z,3.13
2023-03-29T07:13:44.132Z,4.32
2023-03-29T07:16:15.616Z,3.72
2023-03-29T07:18:44.313Z,7.00
2023-03-29T07:21:12.972Z,1.80
2023-03-29T07:23:41.068Z,2.53
2023-03-29T07:26:09.133Z,3.08
2023-03-29T07:28:37.741Z,3.55
2023-03-29T07:31:07.174Z,9.77
2023-03-29T07:33:35.485Z,4.88
2023-03-29T07:36:03.663Z,5.45
2023-03-29T07:38:31.782Z,8.30
2023-03-29T07:40:59.731Z,6.10
2023-03-29T07:43:26.952Z,5.10
2023-03-29T07:45:54.251Z,4.28
2023-03-29T07:48:21.453Z,7.82
2023-03-29T07:50:48.482Z,9.60
2023-03-29T07:53:16.205Z,7.43
2023-03-29T07:55:47.819Z,10.65
2023-03-29T07:58:15.736Z,15.27
2023-03-29T08:00:45.902Z,4.70
2023-03-29T08:03:13.436Z,9.63
2023-03-29T08:05:41.899Z,9.93
2023-03-29T08:08:10.152Z,8.57
2023-03-29T08:10:39.698Z,8.52
2023-03-29T08:13:10.137Z,11.38
2023-03-29T08:15:39.557Z,16.33
2023-03-29T08:18:08.101Z,31.17
2023-03-29T08:20:35.274Z,50.28
2023-03-29T08:23:02.545Z,18.75
2023-03-29T08:25:30.237Z,16.33
2023-03-29T08:27:57.506Z,9.95
2023-03-29T08:30:25.008Z,11.32
2023-03-29T08:32:55.139Z,5.22
2023-03-29T08:35:22.854Z,8.80
2023-03-29T08:37:50.078Z,5.70
2023-03-29T08:40:22.601Z,13.10
2023-03-29T08:42:58.383Z,7.72
2023-03-29T08:45:39.321Z,14.63
2023-03-29T08:48:25.834Z,9.20
2023-03-29T08:51:08.622Z,12.93
2023-03-29T08:53:47.108Z,14.88
2023-03-29T08:56:19.771Z,22.30
2023-03-29T08:58:48.318Z,21.55
2023-03-29T09:01:15.588Z,25.60
2023-03-29T09:03:50.324Z,21.60
2023-03-29T09:06:20.649Z,18.20
2023-03-29T09:08:50.702Z,29.90
2023-03-29T09:11:44.866Z,47.80
2023-03-29T09:14:33.855Z,44.42
2023-03-29T09:17:32.922Z,36.88
2023-03-29T09:20:21.666Z,35.80
2023-03-29T09:22:51.717Z,32.47
2023-03-29T09:25:27.007Z,47.85
2023-03-29T09:28:17.809Z,60.80
2023-03-29T09:31:10.677Z,67.88
2023-03-29T09:33:45.203Z,74.97
2023-03-29T09:36:17.862Z,106.03
2023-03-29T09:38:49.301Z,90.82
2023-03-29T09:41:28.215Z,94.03
2023-03-29T09:43:57.973Z,69.95
2023-03-29T09:46:49.139Z,51.65
2023-03-29T09:49:22.281Z,46.40
2023-03-29T09:51:50.858Z,55.20
2023-03-29T09:54:17.987Z,54.53
2023-03-29T09:56:45.083Z,58.83
2023-03-29T09:59:12.884Z,79.72
2023-03-29T10:01:45.464Z,62.33
2023-03-29T10:04:14.145Z,76.63
2023-03-29T10:06:49.627Z,68.22
2023-03-29T10:09:23.780Z,72.70
2023-03-29T10:11:57.349Z,67.50
2023-03-29T10:14:35.916Z,57.80
2023-03-29T10:17:06.767Z,53.45
2023-03-29T10:19:35.876Z,53.70
2023-03-29T10:22:07.946Z,47.10
2023-03-29T10:24:35.096Z,33.80
2023-03-29T10:27:04.560Z,27.60
2023-03-29T10:29:42.553Z,19.52
2023-03-29T10:32:38.007Z,22.27
2023-03-29T10:35:08.031Z,14.73
2023-03-29T10:37:35.100Z,12.52
2023-03-29T10:40:02.412Z,15.57
2023-03-29T10:42:29.488Z,32.72
2023-03-29T10:44:58.740Z,44.67
2023-03-29T10:47:27.081Z,56.45
2023-03-29T10:49:59.011Z,46.42
2023-03-29T10:52:26.302Z,32.15
2023-03-29T10:54:56.783Z,32.05
2023-03-29T10:57:38.040Z,26.65
2023-03-29T11:00:23.952Z,27.30
2023-03-29T11:03:17.114Z,24.15
2023-03-29T11:05:54.375Z,32.22
2023-03-29T11:08:43.360Z,20.00
2023-03-29T11:11:35.333Z,19.02
2023-03-29T11:14:13.793Z,15.30
2023-03-29T11:16:51.470Z,44.45
2023-03-29T11:19:49.167Z,127.10
2023-03-29T11:22:42.816Z,136.65
2023-03-29T11:25:29.610Z,89.03
2023-03-29T11:28:21.723Z,100.38
2023-03-29T11:31:05.863Z,74.38
2023-03-29T11:33:56.559Z,53.33
2023-03-29T11:36:42.090Z,27.25
2023-03-29T11:39:14.845Z,19.77
2023-03-29T11:41:48.821Z,20.00
2023-03-29T11:44:24.428Z,32.88
2023-03-29T11:46:57.227Z,34.22
2023-03-29T11:49:34.546Z,43.07
2023-03-29T11:52:17.816Z,48.72
2023-03-29T11:55:04.058Z,59.83
2023-03-29T11:57:59.131Z,107.22
2023-03-29T12:00:41.227Z,73.40
2023-03-29T12:03:55.565Z,26.08
2023-03-29T12:06:32.176Z,22.73
2023-03-29T12:09:23.621Z,21.70
2023-03-29T12:12:20.676Z,20.95
2023-03-29T12:14:56.766Z,21.63
2023-03-29T12:17:31.439Z,15.85
2023-03-29T12:20:04.765Z,18.33
2023-03-29T12:22:32.945Z,24.00
2023-03-29T12:25:03.554Z,39.58
2023-03-29T12:27:37.723Z,28.63
2023-03-29T12:30:17.264Z,36.40
2023-03-29T12:32:59.354Z,53.97
2023-03-29T12:35:52.880Z,76.32
2023-03-29T12:38:23.144Z,103.22
2023-03-29T12:41:00.620Z,102.63
2023-03-29T12:43:49.018Z,95.65
2023-03-29T12:46:23.500Z,92.72
2023-03-29T12:48:57.426Z,59.28
2023-03-29T12:51:37.243Z,65.00
2023-03-29T12:54:22.039Z,60.03
2023-03-29T12:56:52.396Z,75.50
2023-03-29T12:59:37.977Z,93.72
2023-03-29T13:02:14.390Z,97.85
2023-03-29T13:04:44.634Z,99.72
2023-03-29T13:07:24.177Z,81.53
2023-03-29T13:09:56.396Z,68.43
2023-03-29T13:12:43.137Z,69.05
2023-03-29T13:15:19.202Z,76.20
2023-03-29T13:18:03.080Z,66.28
2023-03-29T13:23:36.640Z,34.58
2023-03-29T13:26:47.439Z,35.90
2023-03-29T13:29:43.622Z,40.50
2023-03-29T13:32:41.652Z,39.80
2023-03-29T13:35:31.154Z,31.77
2023-03-29T13:38:15.500Z,40.63
2023-03-29T13:40:57.047Z,35.25
2023-03-29T13:43:34.038Z,36.60
2023-03-29T13:46:01.360Z,46.40
2023-03-29T13:48:37.902Z,31.20
2023-03-29T13:51:40.285Z,36.30
2023-03-29T13:54:24.422Z,55.25
2023-03-29T13:57:06.958Z,34.65
2023-03-29T13:59:45.524Z,27.55
2023-03-29T14:02:25.637Z,20.33
2023-03-29T14:04:53.787Z,24.65
2023-03-29T14:07:26.602Z,14.65
2023-03-29T14:09:55.837Z,29.20
2023-03-29T14:12:23.098Z,19.08
2023-03-29T14:14:58.876Z,17.83
2023-03-29T14:17:27.359Z,23.05
2023-03-29T14:19:58.821Z,24.88
2023-03-29T14:22:31.444Z,21.42
2023-03-29T14:25:03.088Z,21.52
2023-03-29T14:27:32.125Z,19.83
2023-03-29T14:29:59.239Z,14.48
2023-03-29T14:32:31.930Z,21.75
2023-03-29T14:35:00.868Z,20.57
2023-03-29T14:37:29.236Z,20.48
2023-03-29T14:39:59.178Z,23.38
2023-03-29T14:42:28.269Z,17.42
2023-03-29T14:45:04.655Z,16.63
2023-03-29T14:47:33.952Z,27.45
2023-03-29T14:50:02.073Z,18.98
2023-03-29T14:52:30.835Z,12.63
2023-03-29T14:55:01.220Z,22.05
2023-03-29T14:57:34.695Z,15.82
2023-03-29T15:00:13.634Z,21.15
2023-03-29T15:03:15.506Z,18.42
2023-03-29T15:06:04.487Z,25.90
2023-03-29T15:08:38.715Z,23.58
2023-03-29T15:11:16.940Z,18.20
2023-03-29T15:13:44.702Z,22.50
2023-03-29T15:16:19.603Z,19.08
2023-03-29T15:18:49.929Z,27.42
2023-03-29T15:21:20.061Z,16.35
2023-03-29T15:23:52.120Z,23.38
2023-03-29T15:26:26.536Z,18.15
2023-03-29T15:29:03.222Z,26.20
2023-03-29T15:31:35.776Z,27.30
2023-03-29T15:34:06.313Z,21.43
2023-03-29T15:36:38.884Z,24.10
2023-03-29T15:39:06.156Z,15.60
2023-03-29T15:41:33.134Z,22.27
2023-03-29T15:44:00.258Z,16.27
2023-03-29T15:46:27.621Z,19.92
2023-03-29T15:48:54.661Z,17.63
2023-03-29T15:51:21.917Z,16.45
2023-03-29T15:53:48.995Z,22.67
2023-03-29T15:56:19.159Z,16.30
2023-03-29T15:58:47.883Z,13.02
2023-03-29T16:01:37.658Z,16.77
2023-03-29T16:04:08.298Z,21.10
2023-03-29T16:06:36.289Z,19.08
2023-03-29T16:09:04.661Z,21.80
2023-03-29T16:11:31.776Z,25.38
2023-03-29T16:13:59.319Z,26.17
2023-03-29T16:16:26.638Z,20.83
2023-03-29T16:18:53.791Z,17.70
2023-03-29T16:21:22.543Z,23.75
2023-03-29T16:23:49.619Z,29.92
2023-03-29T16:26:17.877Z,33.28
2023-03-29T16:28:45.200Z,26.52
2023-03-29T16:31:13.398Z,36.92
2023-03-29T16:33:41.957Z,28.95
2023-03-29T16:36:10.948Z,26.85
2023-03-29T16:38:38.635Z,34.35
2023-03-29T16:41:06.188Z,26.73
2023-03-29T16:43:33.307Z,26.80
2023-03-29T16:46:00.614Z,22.40
2023-03-29T16:48:27.921Z,36.55
2023-03-29T16:50:55.153Z,43.85
2023-03-29T16:53:23.416Z,43.60
2023-03-29T16:55:51.015Z,36.28
2023-03-29T16:58:18.136Z,37.85
2023-03-29T17:00:47.999Z,27.15
2023-03-29T17:03:17.110Z,36.78
2023-03-29T17:05:52.213Z,39.53
2023-03-29T17:08:20.653Z,44.85
2023-03-29T17:10:52.998Z,39.40
2023-03-29T17:13:21.566Z,36.20
2023-03-29T17:15:52.349Z,37.47
2023-03-29T17:18:24.756Z,33.25
2023-03-29T17:20:53.048Z,33.85
2023-03-29T17:23:20.130Z,30.73
2023-03-29T17:25:47.325Z,22.52
2023-03-29T17:28:14.468Z,29.13
2023-03-29T17:30:41.883Z,32.42
2023-03-29T17:33:09.026Z,34.13
2023-03-29T17:35:36.247Z,43.78
2023-03-29T17:38:03.284Z,32.53
2023-03-29T17:40:30.369Z,66.07
2023-03-29T17:42:57.668Z,42.05
2023-03-29T17:45:24.694Z,44.65
2023-03-29T17:47:51.786Z,41.25
2023-03-29T17:50:18.981Z,36.83
2023-03-29T17:52:46.109Z,30.15
2023-03-29T17:55:16.492Z,26.55
2023-03-29T17:57:44.374Z,34.75
2023-03-29T18:00:14.085Z,22.63
2023-03-29T18:02:41.775Z,27.60
2023-03-29T18:05:09.764Z,30.75
2023-03-29T18:07:37.545Z,35.22
2023-03-29T18:10:05.652Z,24.55
2023-03-29T18:12:32.682Z,27.60
2023-03-29T18:14:59.828Z,27.42
2023-03-29T18:17:27.777Z,20.20
2023-03-29T18:19:54.994Z,18.88
2023-03-29T18:22:24.238Z,22.02
2023-03-29T18:24:51.432Z,25.50
2023-03-29T18:27:19.086Z,18.20
2023-03-29T18:29:46.217Z,24.20
2023-03-29T18:32:14.657Z,26.67
2023-03-29T18:34:41.750Z,21.77
2023-03-29T18:37:14.795Z,20.15
2023-03-29T18:39:42.075Z,32.67
2023-03-29T18:42:11.609Z,17.10
2023-03-29T18:44:40.631Z,34.92
2023-03-29T18:47:08.618Z,28.92
2023-03-29T18:49:36.971Z,27.48
2023-03-29T18:52:05.163Z,37.70
2023-03-29T18:54:32.343Z,55.72
2023-03-29T18:57:00.633Z,60.00
2023-03-29T18:59:28.065Z,33.03
2023-03-29T19:01:55.198Z,65.72
2023-03-29T19:04:23.960Z,57.97
2023-03-29T19:06:52.145Z,60.53
2023-03-29T19:09:19.248Z,68.00
2023-03-29T19:11:48.242Z,46.55
2023-03-29T19:14:17.539Z,49.20
2023-03-29T19:16:45.107Z,66.90
2023-03-29T19:19:13.019Z,37.45
2023-03-29T19:21:40.063Z,45.60
2023-03-29T19:24:08.371Z,55.25
2023-03-29T19:26:35.727Z,69.25
2023-03-29T19:29:02.824Z,36.35
2023-03-29T19:31:30.126Z,39.10
2023-03-29T19:33:57.294Z,34.47
2023-03-29T19:36:24.384Z,20.65
2023-03-29T19:38:51.911Z,17.58
2023-03-29T19:41:18.954Z,17.98
2023-03-29T19:43:46.098Z,28.23
2023-03-29T19:46:13.641Z,38.83
2023-03-29T19:48:40.924Z,60.60
2023-03-29T19:51:08.427Z,30.58
2023-03-29T19:53:38.527Z,31.90
2023-03-29T19:56:07.954Z,35.80
2023-03-29T19:58:35.173Z,52.53
2023-03-29T20:01:02.532Z,54.15
2023-03-29T20:03:30.134Z,27.50
2023-03-29T20:05:57.476Z,52.88
2023-03-29T20:08:25.095Z,55.65
2023-03-29T20:11:00.036Z,52.72
2023-03-29T20:13:37.350Z,42.72
2023-03-29T20:16:10.215Z,44.20
2023-03-29T20:18:40.728Z,32.85
2023-03-29T20:21:09.047Z,32.20
2023-03-29T20:23:36.674Z,28.15
2023-03-29T20:26:03.757Z,28.63
2023-03-29T20:28:31.653Z,112.57
2023-03-29T20:31:04.086Z,70.10
2023-03-29T20:33:31.691Z,85.85
2023-03-29T20:35:59.361Z,57.63
2023-03-29T20:38:26.575Z,74.13
2023-03-29T20:40:54.270Z,75.18
2023-03-29T20:43:21.641Z,45.38
2023-03-29T20:45:53.504Z,49.55
2023-03-29T20:48:23.568Z,34.40
2023-03-29T20:50:51.756Z,132.43
2023-03-29T20:53:20.808Z,125.43
2023-03-29T20:55:48.253Z,122.85
2023-03-29T20:58:16.183Z,86.78
2023-03-29T21:00:43.865Z,73.72
2023-03-29T21:03:11.505Z,62.15
2023-03-29T21:05:39.123Z,70.07
2023-03-29T21:08:06.364Z,74.25
2023-03-29T21:10:33.611Z,54.17
2023-03-29T21:13:02.864Z,75.68
2023-03-29T21:15:31.226Z,56.53
2023-03-29T21:17:58.748Z,59.05
2023-03-29T21:20:26.197Z,54.95
2023-03-29T21:22:53.257Z,67.43
2023-03-29T21:25:20.458Z,52.13
2023-03-29T21:27:47.601Z,68.20
2023-03-29T21:30:14.752Z,72.63
2023-03-29T21:32:41.954Z,77.13
2023-03-29T21:35:09.973Z,46.22
2023-03-29T21:37:37.073Z,23.42
2023-03-29T21:40:10.823Z,23.63
2023-03-29T21:42:38.106Z,24.08
2023-03-29T21:45:05.562Z,20.23
2023-03-29T21:47:32.694Z,18.90
2023-03-29T21:49:59.714Z,15.32
2023-03-29T21:52:26.728Z,18.95
2023-03-29T21:54:53.882Z,19.20
2023-03-29T21:57:21.022Z,17.95
2023-03-29T21:59:48.095Z,17.13
2023-03-29T22:02:15.266Z,21.15
2023-03-29T22:04:42.311Z,55.20
2023-03-29T22:07:10.954Z,40.30
2023-03-29T22:09:38.231Z,41.75
2023-03-29T22:12:05.461Z,39.47
2023-03-29T22:14:35.407Z,25.90
2023-03-29T22:17:09.769Z,25.23
2023-03-29T22:19:40.264Z,19.13
2023-03-29T22:22:14.098Z,22.67
2023-03-29T22:24:42.356Z,30.73
2023-03-29T22:27:10.756Z,28.25
2023-03-29T22:29:37.906Z,26.08
2023-03-29T22:32:05.152Z,20.58
2023-03-29T22:34:32.601Z,15.95
2023-03-29T22:36:59.672Z,18.75
2023-03-29T22:39:27.096Z,16.88
2023-03-29T22:41:54.588Z,15.48
2023-03-29T22:44:36.014Z,16.90
2023-03-29T22:47:03.132Z,15.30
2023-03-29T22:49:30.153Z,13.70
2023-03-29T22:51:57.343Z,14.65
2023-03-29T22:54:24.460Z,16.17
2023-03-29T22:56:51.888Z,17.25
2023-03-29T22:59:19.202Z,12.60
2023-03-29T23:01:46.341Z,11.73
2023-03-29T23:04:13.577Z,13.95
2023-03-29T23:06:41.198Z,16.45
2023-03-29T23:09:09.752Z,12.45
2023-03-29T23:11:37.296Z,13.50
2023-03-29T23:14:04.359Z,13.18
2023-03-29T23:16:32.380Z,17.42
2023-03-29T23:18:59.656Z,11.00
2023-03-29T23:21:28.188Z,20.50
2023-03-29T23:23:55.530Z,17.48
2023-03-29T23:26:23.400Z,12.95
2023-03-29T23:28:51.751Z,12.32
2023-03-29T23:31:18.988Z,9.98
2023-03-29T23:33:46.297Z,9.23
2023-03-29T23:36:19.129Z,10.00
2023-03-29T23:38:47.743Z,14.00
2023-03-29T23:41:16.937Z,13.20
2023-03-29T23:43:47.329Z,13.15
2023-03-29T23:46:17.478Z,7.85
2023-03-29T23:48:49.369Z,11.00
2023-03-29T23:51:19.139Z,16.55
2023-03-29T23:53:46.816Z,11.50
2023-03-29T23:56:13.893Z,8.40
2023-03-29T23:58:41.655Z,12.88
